Time;durP1;ratioP1;P1;durP2;ratioP2;P2;SDS_P1;SDS_P2;PMS_P1;PMS_P2;Temp;Humidity;BMP_temperature;BMP_pressure;BME280_temperature;BME280_humidity;BME280_pressure;Samples;Min_cycle;Max_cycle;Signal;HPM_P1;HPM_P2
2022/05/21 00:01:05;;;;;;;2.15;1.52;;;15.70;99.90;;;;;;4931346;29;20216;-61
2022/05/21 00:03:33;;;;;;;2.22;1.55;;;15.70;99.90;;;;;;4932895;29;20259;-62
2022/05/21 00:06:01;;;;;;;1.70;1.60;;;15.80;99.90;;;;;;4934284;29;20282;-62
2022/05/21 00:08:36;;;;;;;3.83;1.92;;;15.70;99.90;;;;;;4933045;29;20231;-61
2022/05/21 00:11:04;;;;;;;1.42;1.33;;;15.70;99.90;;;;;;4931982;29;20964;-62
2022/05/21 00:13:32;;;;;;;3.28;1.10;;;15.70;99.90;;;;;;4933937;29;20620;-61
2022/05/21 00:16:00;;;;;;;1.95;1.52;;;15.70;99.90;;;;;;4934469;29;20203;-61
2022/05/21 00:18:28;;;;;;;1.88;1.73;;;15.70;99.90;;;;;;4935536;29;20224;-61
2022/05/21 00:20:56;;;;;;;6.28;1.65;;;15.50;99.90;;;;;;4930846;29;20307;-61
2022/05/21 00:23:26;;;;;;;1.45;0.90;;;15.50;99.90;;;;;;4933797;29;20616;-61
2022/05/21 00:25:59;;;;;;;1.65;1.27;;;15.30;99.90;;;;;;4932936;29;20287;-62
2022/05/21 00:28:28;;;;;;;4.80;1.70;;;15.30;99.90;;;;;;4934265;29;20571;-61
2022/05/21 00:30:56;;;;;;;4.65;1.42;;;15.20;99.90;;;;;;4934423;29;20243;-61
2022/05/21 00:33:26;;;;;;;2.90;1.73;;;15.10;99.90;;;;;;4933676;29;20267;-61
2022/05/21 00:35:55;;;;;;;1.73;1.63;;;15.10;99.90;;;;;;4933977;29;20204;-61
2022/05/21 00:38:23;;;;;;;5.57;1.88;;;15.10;99.90;;;;;;4930810;29;20700;-60
2022/05/21 00:40:52;;;;;;;1.35;1.08;;;15.10;99.90;;;;;;4930952;29;20274;-60
2022/05/21 00:43:47;;;;;;;1.90;1.40;;;15.20;99.90;;;;;;4933601;29;20232;-60
2022/05/21 00:46:18;;;;;;;2.05;1.55;;;15.10;99.90;;;;;;4933948;29;20335;-61
2022/05/21 00:48:52;;;;;;;2.45;1.13;;;15.10;99.90;;;;;;4934837;29;20306;-60
2022/05/21 00:51:24;;;;;;;3.80;1.70;;;15.10;99.90;;;;;;4926511;29;20303;-61
2022/05/21 00:53:55;;;;;;;1.42;1.33;;;15.20;99.90;;;;;;4930280;29;20259;-61
2022/05/21 00:56:25;;;;;;;1.50;0.95;;;15.40;99.90;;;;;;4933008;29;20287;-60
2022/05/21 01:01:45;;;;;;;1.45;1.35;;;15.50;99.90;;;;;;4933383;29;20302;-61
2022/05/21 01:04:13;;;;;;;4.65;1.33;;;15.70;99.90;;;;;;4929698;29;20287;-61
2022/05/21 01:06:41;;;;;;;2.00;1.60;;;15.70;99.90;;;;;;4930022;29;20196;-61
2022/05/21 01:09:09;;;;;;;1.75;1.50;;;15.90;99.90;;;;;;4933547;29;20196;-61
2022/05/21 01:11:39;;;;;;;2.28;1.20;;;16.30;99.90;;;;;;4932549;29;20704;-61
2022/05/21 01:14:11;;;;;;;8.73;1.83;;;16.50;99.90;;;;;;4932639;29;20929;-61
2022/05/21 01:16:39;;;;;;;1.85;1.23;;;16.70;99.90;;;;;;4933815;29;20842;-61
2022/05/21 01:19:09;;;;;;;9.77;1.88;;;16.60;99.90;;;;;;4931505;29;20302;-62
2022/05/21 01:21:38;;;;;;;1.42;1.33;;;16.50;99.90;;;;;;4929326;29;20296;-61
2022/05/21 01:24:09;;;;;;;1.70;1.60;;;16.50;99.90;;;;;;4919852;29;20278;-61
2022/05/21 01:26:38;;;;;;;1.40;1.30;;;16.60;99.90;;;;;;4927807;29;20267;-61
2022/05/21 01:29:11;;;;;;;4.45;1.42;;;16.80;99.90;;;;;;4920283;29;20244;-61
2022/05/21 01:31:39;;;;;;;4.28;1.83;;;16.80;99.90;;;;;;4927128;29;20224;-61
2022/05/21 01:34:07;;;;;;;1.50;1.40;;;16.60;99.90;;;;;;4920603;29;20212;-61
2022/05/21 01:36:35;;;;;;;1.30;1.05;;;16.60;99.90;;;;;;4925433;29;20251;-61
2022/05/21 01:39:03;;;;;;;1.85;1.73;;;16.50;99.90;;;;;;4924656;29;20268;-61
2022/05/21 01:41:32;;;;;;;2.65;1.45;;;16.60;99.90;;;;;;4916576;29;20264;-61
2022/05/21 01:46:46;;;;;;;2.03;1.70;;;16.40;99.90;;;;;;4921035;29;20236;-61
2022/05/21 01:49:13;;;;;;;2.30;1.60;;;16.20;99.90;;;;;;4932680;29;20222;-61
2022/05/21 01:51:41;;;;;;;1.85;1.65;;;16.30;99.90;;;;;;4919036;29;20224;-62
2022/05/21 01:54:10;;;;;;;1.30;1.20;;;16.30;99.90;;;;;;4924690;29;20606;-61
2022/05/21 01:56:39;;;;;;;3.72;1.58;;;16.20;99.90;;;;;;4918227;29;20305;-61
2022/05/21 01:59:07;;;;;;;1.88;1.77;;;16.30;99.90;;;;;;4925931;29;20241;-62
2022/05/21 02:01:35;;;;;;;2.60;1.90;;;16.60;99.90;;;;;;4923451;29;20232;-61
2022/05/21 02:04:03;;;;;;;2.08;1.50;;;16.60;99.90;;;;;;4926810;29;20624;-61
2022/05/21 02:06:31;;;;;;;2.35;1.80;;;16.50;99.90;;;;;;4926626;29;20294;-62
2022/05/21 02:08:58;;;;;;;1.95;1.85;;;16.50;99.90;;;;;;4929447;29;20642;-61
2022/05/21 02:11:26;;;;;;;3.05;2.30;;;16.10;99.90;;;;;;4926061;29;20248;-61
2022/05/21 02:13:56;;;;;;;2.17;1.73;;;16.00;99.90;;;;;;4922348;29;20243;-61
2022/05/21 02:16:23;;;;;;;3.63;2.20;;;15.70;99.90;;;;;;4925727;29;20291;-62
2022/05/21 02:18:51;;;;;;;2.75;1.80;;;15.50;99.90;;;;;;4933355;29;20613;-62
2022/05/21 02:21:19;;;;;;;2.63;2.40;;;15.60;99.90;;;;;;4927197;29;20316;-62
2022/05/21 02:23:47;;;;;;;3.05;2.55;;;15.50;99.90;;;;;;4918482;29;20265;-61
2022/05/21 02:26:17;;;;;;;6.28;3.00;;;15.60;99.90;;;;;;4929137;29;20200;-61
2022/05/21 02:28:44;;;;;;;4.10;2.53;;;15.30;99.90;;;;;;4920854;29;20205;-62
2022/05/21 02:31:14;;;;;;;5.20;2.80;;;15.20;99.90;;;;;;4925418;29;20246;-62
2022/05/21 02:33:43;;;;;;;2.45;2.35;;;15.20;99.90;;;;;;4919402;29;20232;-62
2022/05/21 02:36:11;;;;;;;5.03;3.40;;;15.10;99.90;;;;;;4918419;29;20208;-62
2022/05/21 02:41:25;;;;;;;5.97;3.10;;;15.00;99.90;;;;;;4926631;29;20315;-62
2022/05/21 02:43:52;;;;;;;3.08;2.88;;;15.20;99.90;;;;;;4927770;29;20228;-61
2022/05/21 02:46:21;;;;;;;3.10;2.80;;;15.10;99.90;;;;;;4919691;29;20228;-63
2022/05/21 02:48:49;;;;;;;3.65;3.45;;;15.10;99.90;;;;;;4935738;29;20204;-62
2022/05/21 02:51:17;;;;;;;4.10;3.03;;;14.90;99.90;;;;;;4922115;29;20315;-62
2022/05/21 02:53:45;;;;;;;4.63;3.00;;;14.90;99.90;;;;;;4924244;29;20295;-61
2022/05/21 02:56:14;;;;;;;3.40;3.20;;;14.80;99.90;;;;;;4917145;29;20201;-62
2022/05/21 02:58:42;;;;;;;4.72;3.47;;;15.00;99.90;;;;;;4923177;29;20212;-62
2022/05/21 03:01:10;;;;;;;4.13;3.83;;;15.00;99.90;;;;;;4927144;29;20842;-61
2022/05/21 03:03:39;;;;;;;4.78;3.70;;;15.10;99.90;;;;;;4921855;29;20296;-61
2022/05/21 03:06:07;;;;;;;4.82;4.43;;;15.10;99.90;;;;;;4919817;29;20287;-61
2022/05/21 03:11:20;;;;;;;4.45;4.07;;;14.90;99.90;;;;;;4923622;29;20242;-61
2022/05/21 03:13:48;;;;;;;6.38;3.30;;;15.00;99.90;;;;;;4920662;29;20287;-61
2022/05/21 03:16:16;;;;;;;6.68;4.13;;;15.10;99.90;;;;;;4927537;29;20223;-61
2022/05/21 03:18:45;;;;;;;3.80;3.35;;;15.00;99.90;;;;;;4924817;29;20223;-61
2022/05/21 03:21:14;;;;;;;4.03;3.72;;;15.10;99.90;;;;;;4935807;29;20227;-61
2022/05/21 03:23:46;;;;;;;4.45;3.72;;;15.00;99.90;;;;;;4914246;29;20247;-62
2022/05/21 03:26:14;;;;;;;3.65;3.45;;;14.90;99.90;;;;;;4922342;29;20240;-62
2022/05/21 03:28:42;;;;;;;3.75;3.22;;;15.00;99.90;;;;;;4923324;29;20243;-62
2022/05/21 03:31:11;;;;;;;6.05;4.38;;;14.80;99.90;;;;;;4925629;29;20239;-62
2022/05/21 03:33:39;;;;;;;4.65;4.35;;;14.70;99.90;;;;;;4922171;29;20200;-62
2022/05/21 03:36:09;;;;;;;7.80;4.30;;;14.70;99.90;;;;;;4926083;29;20208;-62
2022/05/21 03:38:37;;;;;;;4.00;3.70;;;14.40;99.90;;;;;;4929039;29;20295;-61
2022/05/21 03:41:05;;;;;;;4.50;4.20;;;14.30;99.90;;;;;;4929503;29;20279;-62
2022/05/21 03:43:33;;;;;;;4.45;4.03;;;14.30;99.90;;;;;;4920636;29;20239;-62
2022/05/21 03:46:01;;;;;;;5.05;4.18;;;14.10;99.90;;;;;;4922312;29;20684;-63
2022/05/21 03:48:29;;;;;;;5.55;4.47;;;14.20;99.90;;;;;;4933346;29;20222;-62
2022/05/21 03:50:57;;;;;;;5.75;4.10;;;14.10;99.90;;;;;;4925204;29;20225;-62
2022/05/21 03:53:26;;;;;;;4.38;3.55;;;14.00;99.90;;;;;;4931067;29;20236;-62
2022/05/21 03:55:54;;;;;;;3.58;3.28;;;14.00;99.90;;;;;;4923413;29;20631;-63
2022/05/21 03:58:22;;;;;;;3.83;3.53;;;14.00;99.90;;;;;;4955585;23;20259;-68
2022/05/21 04:00:50;;;;;;;6.75;3.70;;;14.10;99.90;;;;;;4953293;28;20794;-68
2022/05/21 04:03:19;;;;;;;4.60;3.75;;;14.10;99.90;;;;;;4953661;29;20258;-69
2022/05/21 04:05:47;;;;;;;3.63;3.35;;;14.20;99.90;;;;;;4954374;29;20230;-70
2022/05/21 04:08:17;;;;;;;3.47;3.17;;;14.00;99.90;;;;;;4953985;28;20738;-68
2022/05/21 04:10:48;;;;;;;3.88;3.00;;;14.10;99.90;;;;;;4954294;29;20714;-68
2022/05/21 04:13:16;;;;;;;3.85;3.45;;;14.10;99.90;;;;;;4953835;29;20211;-69
2022/05/21 04:15:45;;;;;;;5.05;3.65;;;14.10;99.90;;;;;;4954413;29;20203;-70
2022/05/21 04:18:13;;;;;;;4.07;3.40;;;14.30;99.90;;;;;;4953343;28;20239;-69
2022/05/21 04:20:41;;;;;;;3.60;3.30;;;14.50;99.90;;;;;;4959228;28;20307;-70
2022/05/21 04:23:09;;;;;;;4.07;3.78;;;14.70;99.90;;;;;;4953353;29;20567;-70
2022/05/21 04:25:37;;;;;;;6.03;3.30;;;14.60;99.90;;;;;;4954112;29;20699;-71
2022/05/21 04:28:07;;;;;;;3.15;2.95;;;14.80;99.90;;;;;;4950846;29;20231;-70
2022/05/21 04:30:35;;;;;;;3.60;3.30;;;14.90;99.90;;;;;;4953988;29;20203;-70
2022/05/21 04:33:04;;;;;;;2.97;2.67;;;14.60;99.90;;;;;;4953256;29;20214;-69
2022/05/21 04:38:15;;;;;;;3.45;3.20;;;14.90;99.90;;;;;;4952162;28;20235;-68
2022/05/21 04:40:43;;;;;;;4.32;2.70;;;15.10;99.90;;;;;;4952755;28;21220;-69
2022/05/21 04:43:12;;;;;;;2.70;2.50;;;15.00;99.90;;;;;;4953117;29;20717;-69
2022/05/21 04:45:41;;;;;;;3.85;3.55;;;15.00;99.90;;;;;;4952329;29;20200;-68
2022/05/21 04:48:10;;;;;;;3.40;3.10;;;15.00;99.90;;;;;;4954797;28;20781;-70
2022/05/21 04:50:39;;;;;;;7.07;3.03;;;14.20;99.90;;;;;;4944344;28;21345;-68
2022/05/21 04:53:08;;;;;;;3.30;2.83;;;15.00;99.90;;;;;;4946554;28;21201;-69
2022/05/21 04:55:36;;;;;;;7.05;3.72;;;14.90;99.90;;;;;;4950160;28;20235;-67
2022/05/21 04:58:05;;;;;;;2.72;2.50;;;14.80;99.90;;;;;;4954663;28;20742;-67
2022/05/21 05:00:35;;;;;;;2.42;2.22;;;14.80;99.90;;;;;;4950626;28;20259;-68
2022/05/21 05:03:04;;;;;;;5.45;2.50;;;15.20;99.90;;;;;;4954026;28;20217;-67
2022/05/21 05:05:31;;;;;;;2.75;2.55;;;15.50;99.90;;;;;;4949597;28;20600;-68
2022/05/21 05:08:00;;;;;;;2.65;2.30;;;15.80;99.90;;;;;;4954483;28;20291;-67
2022/05/21 05:10:29;;;;;;;3.95;2.40;;;15.90;99.90;;;;;;4949346;28;20290;-67
2022/05/21 05:12:57;;;;;;;2.42;2.20;;;16.00;99.90;;;;;;4953883;28;20253;-67
2022/05/21 05:15:27;;;;;;;2.13;1.92;;;15.90;99.90;;;;;;4951388;28;20330;-67
2022/05/21 05:18:00;;;;;;;2.17;2.08;;;16.10;99.90;;;;;;4952446;28;20226;-67
2022/05/21 05:20:28;;;;;;;2.65;2.33;;;16.20;99.90;;;;;;4948564;28;20217;-68
2022/05/21 05:22:56;;;;;;;6.80;2.67;;;16.30;99.90;;;;;;4951450;28;20318;-67
2022/05/21 05:25:24;;;;;;;3.53;2.35;;;16.00;99.90;;;;;;4950738;28;20222;-67
2022/05/21 05:27:52;;;;;;;2.78;2.35;;;16.00;99.90;;;;;;4954045;28;20230;-67
2022/05/21 05:30:22;;;;;;;4.10;3.15;;;15.50;99.90;;;;;;4945511;28;20289;-67
2022/05/21 05:32:51;;;;;;;2.35;2.15;;;15.10;99.90;;;;;;4950486;28;20210;-67
2022/05/21 05:35:20;;;;;;;3.75;2.65;;;15.00;99.90;;;;;;4947053;28;20650;-68
2022/05/21 05:37:49;;;;;;;4.30;2.10;;;15.40;99.90;;;;;;4953897;28;20202;-67
2022/05/21 05:40:20;;;;;;;1.70;1.60;;;15.60;99.90;;;;;;4950203;28;20691;-67
2022/05/21 05:42:48;;;;;;;2.00;1.65;;;15.70;99.90;;;;;;4952590;28;20809;-67
2022/05/21 05:45:18;;;;;;;3.85;2.05;;;15.80;99.90;;;;;;4953283;28;20230;-68
2022/05/21 05:47:47;;;;;;;5.55;2.10;;;15.90;99.90;;;;;;4952259;28;20824;-68
2022/05/21 05:50:15;;;;;;;3.70;1.90;;;15.80;99.90;;;;;;4949832;28;20390;-70
2022/05/21 05:52:44;;;;;;;2.10;1.45;;;15.40;99.90;;;;;;4951340;28;21505;-70
2022/05/21 05:55:12;;;;;;;3.25;1.95;;;15.30;99.90;;;;;;4949781;28;20202;-70
2022/05/21 05:57:40;;;;;;;3.35;1.95;;;15.40;99.90;;;;;;4954456;28;20242;-70
2022/05/21 06:00:09;;;;;;;2.55;1.35;;;14.90;99.90;;;;;;4948265;28;20251;-70
2022/05/21 06:05:23;;;;;;;2.53;1.90;;;15.70;99.90;;;;;;4951959;28;20285;-70
2022/05/21 06:07:55;;;;;;;3.92;2.25;;;15.60;99.90;;;;;;4950967;28;20234;-69
2022/05/21 06:10:25;;;;;;;2.55;1.70;;;15.70;99.90;;;;;;4950472;28;20731;-69
2022/05/21 06:12:53;;;;;;;3.70;2.20;;;15.80;99.90;;;;;;4951408;28;20234;-69
2022/05/21 06:15:21;;;;;;;4.03;2.15;;;16.10;99.90;;;;;;4946516;28;20316;-67
2022/05/21 06:17:52;;;;;;;1.77;1.67;;;16.10;99.90;;;;;;4953663;28;20634;-67
2022/05/21 06:20:22;;;;;;;2.25;1.70;;;15.90;99.90;;;;;;4948004;28;20651;-68
2022/05/21 06:22:52;;;;;;;2.58;1.35;;;15.70;99.90;;;;;;4952538;28;20317;-72
2022/05/21 06:25:22;;;;;;;1.45;1.35;;;15.90;99.90;;;;;;4952197;28;20287;-71
2022/05/21 06:27:52;;;;;;;2.75;1.55;;;15.80;99.90;;;;;;4953358;28;20235;-72
2022/05/21 06:30:22;;;;;;;2.88;1.65;;;16.00;99.90;;;;;;4949318;28;20230;-70
2022/05/21 06:32:51;;;;;;;2.78;1.40;;;16.10;99.90;;;;;;4948214;28;20334;-69
2022/05/21 06:35:20;;;;;;;2.63;1.65;;;16.00;99.90;;;;;;4948479;28;20290;-71
2022/05/21 06:37:48;;;;;;;2.90;1.50;;;16.00;99.90;;;;;;4951390;28;20299;-72
2022/05/21 06:40:18;;;;;;;3.90;1.58;;;16.10;99.90;;;;;;4950308;28;20317;-71
2022/05/21 06:42:47;;;;;;;2.67;1.40;;;16.00;99.90;;;;;;4951384;28;20237;-71
2022/05/21 06:45:16;;;;;;;1.60;1.40;;;16.00;99.90;;;;;;4952949;28;20222;-70
2022/05/21 06:47:44;;;;;;;2.17;1.42;;;16.10;99.90;;;;;;4951755;28;20660;-70
2022/05/21 06:50:12;;;;;;;1.85;1.23;;;16.30;99.90;;;;;;4946921;28;20250;-68
2022/05/21 06:52:40;;;;;;;3.55;1.50;;;16.50;99.90;;;;;;4948337;28;20289;-72
2022/05/21 06:55:12;;;;;;;5.30;1.48;;;16.60;99.90;;;;;;4952251;28;20317;-69
2022/05/21 06:57:41;;;;;;;2.97;1.42;;;16.70;99.90;;;;;;4952112;28;20206;-67
2022/05/21 07:00:10;;;;;;;2.38;1.38;;;16.60;99.90;;;;;;4947982;28;20415;-68
2022/05/21 07:02:40;;;;;;;2.28;1.30;;;16.60;99.90;;;;;;4950336;28;20227;-68
2022/05/21 07:07:54;;;;;;;2.50;1.60;;;16.80;99.90;;;;;;4950784;28;20214;-68
2022/05/21 07:10:26;;;;;;;4.15;1.30;;;16.80;99.90;;;;;;4946260;28;20635;-67
2022/05/21 07:12:55;;;;;;;2.70;1.30;;;16.80;99.90;;;;;;4951615;28;20227;-70
2022/05/21 07:15:24;;;;;;;2.47;1.25;;;16.80;99.90;;;;;;4949711;28;20237;-68
2022/05/21 07:17:59;;;;;;;3.15;1.20;;;16.70;99.90;;;;;;4949190;28;20689;-66
2022/05/21 07:20:28;;;;;;;2.08;1.30;;;16.70;99.90;;;;;;4947081;28;20351;-67
2022/05/21 07:22:59;;;;;;;4.45;1.48;;;16.80;99.90;;;;;;4950804;28;20322;-69
2022/05/21 07:25:30;;;;;;;3.08;1.13;;;16.90;99.90;;;;;;4952529;28;20234;-68
2022/05/21 07:28:00;;;;;;;2.58;1.10;;;17.00;99.90;;;;;;4954139;28;20230;-67
2022/05/21 07:30:28;;;;;;;2.40;1.40;;;17.00;99.90;;;;;;4952394;28;20214;-67
2022/05/21 07:32:56;;;;;;;3.90;1.67;;;17.20;99.90;;;;;;4954443;28;20968;-67
2022/05/21 07:35:26;;;;;;;2.22;1.40;;;17.40;99.90;;;;;;4949069;28;20234;-68
2022/05/21 07:37:54;;;;;;;3.83;1.40;;;17.40;99.90;;;;;;4946323;28;20254;-68
2022/05/21 07:40:24;;;;;;;3.95;1.45;;;17.50;99.90;;;;;;4947951;28;20298;-67
2022/05/21 07:42:53;;;;;;;3.90;2.00;;;17.50;99.90;;;;;;4951634;28;20236;-68
2022/05/21 07:45:22;;;;;;;4.35;1.00;;;17.70;99.90;;;;;;4952401;28;20317;-68
2022/05/21 07:47:50;;;;;;;3.35;1.40;;;17.70;99.90;;;;;;4953051;28;20206;-68
2022/05/21 07:50:19;;;;;;;3.55;1.23;;;17.70;99.90;;;;;;4950400;28;20243;-68
2022/05/21 07:52:47;;;;;;;2.75;0.95;;;17.80;99.90;;;;;;4955153;28;20715;-68
2022/05/21 07:55:15;;;;;;;4.40;1.45;;;17.80;99.90;;;;;;4956092;28;20222;-68
2022/05/21 07:57:43;;;;;;;4.28;1.08;;;17.70;99.90;;;;;;4955893;28;20317;-68
2022/05/21 08:00:17;;;;;;;5.15;1.70;;;17.60;99.90;;;;;;4952516;28;20249;-67
2022/05/21 08:02:47;;;;;;;5.07;1.45;;;17.80;99.90;;;;;;4954330;28;20753;-69
2022/05/21 08:05:15;;;;;;;1.63;1.00;;;17.90;99.90;;;;;;4955079;28;20556;-68
2022/05/21 08:07:44;;;;;;;2.50;0.98;;;17.90;99.90;;;;;;4954823;28;20590;-68
2022/05/21 08:10:12;;;;;;;2.08;1.00;;;18.10;99.90;;;;;;4951493;28;20309;-69
2022/05/21 08:12:40;;;;;;;6.90;1.10;;;18.30;99.90;;;;;;4954013;28;20286;-69
2022/05/21 08:15:09;;;;;;;4.43;1.50;;;18.50;99.90;;;;;;4954838;28;20321;-69
2022/05/21 08:17:37;;;;;;;2.42;1.27;;;18.70;99.90;;;;;;4955615;28;20311;-68
2022/05/21 08:20:11;;;;;;;3.83;1.40;;;18.80;99.90;;;;;;4951841;28;20231;-67
2022/05/21 08:28:21;;;;;;;1.70;1.10;;;19.00;99.90;;;;;;4944958;28;20550;-68
2022/05/21 08:30:49;;;;;;;2.97;1.27;;;19.20;99.90;;;;;;4952413;28;20633;-69
2022/05/21 08:33:19;;;;;;;3.55;1.40;;;19.40;99.90;;;;;;4953649;28;21021;-68
2022/05/21 08:35:48;;;;;;;2.17;1.20;;;19.60;99.90;;;;;;4954478;28;20290;-68
2022/05/21 08:38:17;;;;;;;2.75;1.48;;;19.70;99.90;;;;;;4953788;28;20258;-69
2022/05/21 08:40:54;;;;;;;1.63;1.00;;;19.70;99.90;;;;;;4933743;28;20665;-69
2022/05/21 08:43:24;;;;;;;2.22;1.30;;;19.40;99.90;;;;;;4951856;28;20312;-67
2022/05/21 08:46:04;;;;;;;2.13;1.05;;;19.30;99.90;;;;;;4952322;28;20206;-68
2022/05/21 08:48:33;;;;;;;4.68;1.50;;;19.20;99.90;;;;;;4952375;28;20239;-69
2022/05/21 08:51:08;;;;;;;1.45;0.98;;;19.10;99.90;;;;;;4953533;28;20246;-69
2022/05/21 08:53:50;;;;;;;3.20;1.40;;;19.10;99.90;;;;;;4954059;28;20214;-67
2022/05/21 08:56:19;;;;;;;4.55;1.30;;;19.20;99.90;;;;;;4955113;28;20264;-68
2022/05/21 08:58:49;;;;;;;3.42;1.58;;;19.30;99.90;;;;;;4950889;28;20358;-67
2022/05/21 09:01:20;;;;;;;2.95;1.00;;;19.40;99.90;;;;;;4954158;28;20636;-67
2022/05/21 09:03:50;;;;;;;4.28;1.17;;;19.60;99.90;;;;;;4953649;28;20799;-68
2022/05/21 09:06:33;;;;;;;1.95;0.93;;;19.90;99.90;;;;;;4953897;28;20207;-71
2022/05/21 09:09:08;;;;;;;5.10;1.10;;;19.90;99.90;;;;;;4950365;28;20245;-69
2022/05/21 09:11:40;;;;;;;4.20;0.90;;;19.70;99.90;;;;;;4954299;28;20298;-68
2022/05/21 09:14:14;;;;;;;1.70;0.90;;;19.40;99.90;;;;;;4954071;28;20730;-71
2022/05/21 09:16:55;;;;;;;1.85;0.90;;;19.30;99.90;;;;;;4953723;28;20535;-66
2022/05/21 09:19:25;;;;;;;1.70;0.95;;;19.20;99.90;;;;;;4950047;28;20252;-68
2022/05/21 09:22:01;;;;;;;3.53;1.02;;;19.20;99.90;;;;;;4952182;28;20767;-68
2022/05/21 09:24:41;;;;;;;2.05;1.20;;;19.30;99.90;;;;;;4953708;28;20257;-69
2022/05/21 09:27:24;;;;;;;2.85;0.90;;;19.50;99.90;;;;;;4953422;28;20620;-69
2022/05/21 09:29:54;;;;;;;3.72;1.10;;;19.60;99.90;;;;;;4949015;28;20233;-67
2022/05/21 09:32:30;;;;;;;2.95;1.33;;;19.90;99.90;;;;;;4952600;28;20302;-69
2022/05/21 09:35:06;;;;;;;2.63;1.10;;;20.50;99.90;;;;;;4953384;28;20318;-70
2022/05/21 09:37:35;;;;;;;2.45;1.10;;;20.90;99.90;;;;;;4953091;28;20706;-70
2022/05/21 09:40:24;;;;;;;2.60;1.00;;;20.90;99.90;;;;;;4950714;28;20230;-69
2022/05/21 09:45:50;;;;;;;2.60;0.90;;;20.70;99.90;;;;;;4874799;29;20749;-69
2022/05/21 09:48:22;;;;;;;3.72;1.40;;;20.90;99.90;;;;;;4934121;28;20268;-68
2022/05/21 09:50:53;;;;;;;4.68;1.20;;;20.90;99.90;;;;;;4950517;28;20217;-69
2022/05/21 09:53:29;;;;;;;4.72;1.42;;;21.00;99.90;;;;;;4947902;28;20712;-67
2022/05/21 09:56:00;;;;;;;3.25;1.40;;;21.40;99.90;;;;;;4952096;28;20686;-70
2022/05/21 09:58:32;;;;;;;2.42;0.90;;;21.60;99.90;;;;;;4952620;28;20666;-67
2022/05/21 10:01:00;;;;;;;2.53;1.10;;;21.80;99.90;;;;;;4950202;28;20239;-69
2022/05/21 10:03:46;;;;;;;3.90;0.98;;;21.70;99.90;;;;;;4951893;28;20257;-69
2022/05/21 10:06:26;;;;;;;2.35;0.93;;;21.40;99.90;;;;;;4952081;28;20308;-69
2022/05/21 10:11:55;;;;;;;2.15;1.00;;;20.80;99.90;;;;;;4952506;28;20206;-69
2022/05/21 10:14:27;;;;;;;5.22;1.00;;;20.70;99.90;;;;;;4952532;28;20248;-67
2022/05/21 10:16:58;;;;;;;1.55;0.88;;;20.70;99.90;;;;;;4952551;28;20206;-69
2022/05/21 10:19:34;;;;;;;4.38;1.20;;;21.20;99.90;;;;;;4949774;28;20341;-68
2022/05/21 10:22:14;;;;;;;2.20;0.90;;;21.30;99.90;;;;;;4951499;28;20272;-67
2022/05/21 10:25:05;;;;;;;1.80;0.80;;;21.10;99.90;;;;;;4952425;28;20679;-68
2022/05/21 10:28:26;;;;;;;1.75;1.00;;;20.80;99.90;;;;;;4952656;28;20224;-69
2022/05/21 10:31:10;;;;;;;5.60;1.00;;;20.50;99.90;;;;;;4949947;28;20257;-69
2022/05/21 10:33:52;;;;;;;1.42;0.90;;;20.60;99.90;;;;;;4952543;28;20207;-69
2022/05/21 10:36:36;;;;;;;2.90;1.10;;;20.80;99.90;;;;;;4952582;28;20238;-69
2022/05/21 10:39:28;;;;;;;4.30;1.48;;;21.10;99.90;;;;;;4949519;28;20272;-68
2022/05/21 10:42:12;;;;;;;1.83;1.00;;;21.20;99.90;;;;;;4950368;28;20241;-69
2022/05/21 10:44:53;;;;;;;1.67;1.00;;;21.20;99.90;;;;;;4953165;28;20386;-71
2022/05/21 10:47:34;;;;;;;4.18;1.05;;;21.60;99.90;;;;;;4950653;28;20291;-70
2022/05/21 10:50:21;;;;;;;3.25;1.20;;;22.10;99.40;;;;;;4948308;28;20919;-71
2022/05/21 10:53:21;;;;;;;3.67;1.02;;;21.80;99.10;;;;;;4951012;28;20293;-71
2022/05/21 10:55:59;;;;;;;2.17;0.95;;;21.60;99.40;;;;;;4950997;28;20254;-72
2022/05/21 10:58:52;;;;;;;1.20;0.90;;;21.50;99.70;;;;;;4953910;28;20318;-72
2022/05/21 11:01:29;;;;;;;1.80;0.80;;;21.70;99.60;;;;;;4956094;28;20248;-71
2022/05/21 11:04:16;;;;;;;1.70;0.90;;;22.10;99.40;;;;;;4953901;28;20221;-71
2022/05/21 11:07:20;;;;;;;1.15;0.60;;;22.30;97.20;;;;;;4956430;28;20213;-69
2022/05/21 11:09:58;;;;;;;1.92;0.90;;;22.60;96.70;;;;;;4922098;28;20750;-71
2022/05/21 11:12:30;;;;;;;6.57;1.20;;;22.80;96.70;;;;;;4954768;28;20206;-71
2022/05/21 11:15:05;;;;;;;7.60;1.23;;;23.00;97.60;;;;;;4956500;28;20308;-69
2022/05/21 11:17:40;;;;;;;5.65;1.20;;;23.10;97.30;;;;;;4957104;28;20213;-69
2022/05/21 11:20:18;;;;;;;2.47;1.23;;;23.10;96.50;;;;;;4954541;28;20372;-69
2022/05/21 11:22:53;;;;;;;3.65;1.30;;;23.50;96.80;;;;;;4955117;28;20348;-67
2022/05/21 11:25:24;;;;;;;3.45;1.00;;;23.30;96.20;;;;;;4953048;28;20253;-69
2022/05/21 11:27:58;;;;;;;9.18;1.63;;;23.60;96.40;;;;;;4951303;28;20289;-67
2022/05/21 11:30:28;;;;;;;2.20;1.10;;;23.80;95.10;;;;;;4950726;28;20203;-68
2022/05/21 11:38:39;;;;;;;1.42;1.00;;;24.40;95.70;;;;;;4953976;28;20258;-66
2022/05/21 11:41:28;;;;;;;2.35;1.00;;;24.70;93.90;;;;;;4952306;28;20261;-70
2022/05/21 11:46:56;;;;;;;4.20;1.10;;;25.10;92.80;;;;;;4953347;28;20207;-68
2022/05/21 11:49:44;;;;;;;3.95;1.17;;;24.60;92.80;;;;;;4950898;28;20317;-67
2022/05/21 11:52:46;;;;;;;8.85;1.67;;;24.60;92.90;;;;;;4952397;28;20258;-68
2022/05/21 11:55:18;;;;;;;2.10;1.00;;;24.60;93.40;;;;;;4954712;28;20213;-69
2022/05/21 11:57:51;;;;;;;2.20;1.02;;;24.40;92.70;;;;;;4954025;28;20217;-69
2022/05/21 12:00:49;;;;;;;2.10;1.20;;;24.00;93.80;;;;;;4952628;28;20257;-69
2022/05/21 12:03:23;;;;;;;2.10;0.85;;;23.30;92.60;;;;;;4921621;28;20207;-68
2022/05/21 12:05:58;;;;;;;2.15;1.00;;;23.40;93.50;;;;;;4953200;28;20639;-69
2022/05/21 12:08:48;;;;;;;2.70;0.90;;;23.70;93.00;;;;;;4953979;28;20234;-69
2022/05/21 12:11:40;;;;;;;2.25;0.88;;;23.80;92.50;;;;;;4951958;28;20270;-67
2022/05/21 12:14:21;;;;;;;2.65;1.17;;;23.90;92.40;;;;;;4955614;28;20234;-69
2022/05/21 12:16:52;;;;;;;2.13;0.95;;;23.90;93.00;;;;;;4955804;28;20289;-70
2022/05/21 12:20:10;;;;;;;2.75;1.10;;;24.00;92.20;;;;;;4949230;29;20227;-70
2022/05/21 12:22:42;;;;;;;4.25;1.10;;;23.90;92.20;;;;;;4876100;29;20218;-68
2022/05/21 12:25:32;;;;;;;5.53;1.15;;;24.20;91.80;;;;;;4949841;29;20287;-70
2022/05/21 12:28:03;;;;;;;2.45;1.10;;;24.30;92.20;;;;;;4954952;29;20207;-67
2022/05/21 12:30:32;;;;;;;2.15;1.02;;;24.70;92.90;;;;;;4955423;29;20243;-70
2022/05/21 12:33:00;;;;;;;2.35;1.17;;;25.20;91.60;;;;;;4954231;28;20243;-72
2022/05/21 12:35:45;;;;;;;1.00;0.75;;;25.00;91.90;;;;;;4955127;29;20266;-70
2022/05/21 12:38:26;;;;;;;1.20;1.00;;;25.20;92.10;;;;;;4954610;28;20309;-71
2022/05/21 12:41:04;;;;;;;3.38;1.10;;;25.40;90.80;;;;;;4954668;29;20231;-70
2022/05/21 12:43:44;;;;;;;3.55;1.08;;;25.50;90.10;;;;;;4954216;29;20587;-70
2022/05/21 12:46:21;;;;;;;3.05;0.80;;;25.80;90.60;;;;;;4954861;29;20266;-69
2022/05/21 12:48:50;;;;;;;3.25;0.80;;;25.30;90.10;;;;;;4955023;29;20337;-70
2022/05/21 12:51:31;;;;;;;2.33;1.20;;;25.40;90.30;;;;;;4948429;29;20215;-70
2022/05/21 12:54:19;;;;;;;1.73;0.90;;;25.40;88.40;;;;;;4953976;29;20548;-70
2022/05/21 12:56:48;;;;;;;4.65;1.20;;;25.10;90.10;;;;;;4954608;29;20246;-70
2022/05/21 12:59:20;;;;;;;2.55;1.00;;;24.90;88.60;;;;;;4944510;29;20807;-69
2022/05/21 13:01:54;;;;;;;2.00;0.80;;;24.60;90.10;;;;;;4954686;29;20234;-70
2022/05/21 13:04:25;;;;;;;3.08;1.10;;;24.30;89.60;;;;;;4954260;29;20203;-69
2022/05/21 13:06:57;;;;;;;2.25;1.00;;;24.10;90.50;;;;;;4954393;28;20692;-71
2022/05/21 13:09:27;;;;;;;2.53;1.08;;;24.40;90.20;;;;;;4948854;28;20788;-70
2022/05/21 13:11:56;;;;;;;6.28;1.05;;;24.50;89.90;;;;;;4954048;28;20265;-71
2022/05/21 13:14:33;;;;;;;1.65;0.80;;;24.60;90.50;;;;;;4954263;28;20294;-70
2022/05/21 13:17:02;;;;;;;4.45;1.20;;;24.60;90.00;;;;;;4954348;28;20301;-69
2022/05/21 13:20:08;;;;;;;2.15;1.00;;;24.60;89.70;;;;;;4953753;28;20231;-69
2022/05/21 13:23:03;;;;;;;3.53;1.10;;;24.60;88.20;;;;;;4953416;28;20258;-70
2022/05/21 13:25:32;;;;;;;6.38;1.13;;;24.50;89.60;;;;;;4948471;28;20627;-69
2022/05/21 13:28:00;;;;;;;1.60;1.00;;;24.90;89.20;;;;;;4953805;28;20294;-71
2022/05/21 13:30:35;;;;;;;4.85;1.20;;;25.00;89.40;;;;;;4954059;28;20254;-70
2022/05/21 13:33:08;;;;;;;2.63;1.10;;;24.80;88.60;;;;;;4952986;28;20206;-71
2022/05/21 13:35:39;;;;;;;3.20;1.00;;;24.90;87.60;;;;;;4954082;28;20195;-70
2022/05/21 13:38:14;;;;;;;2.53;1.25;;;25.20;86.70;;;;;;4951386;28;20575;-70
2022/05/21 13:40:49;;;;;;;1.80;0.80;;;25.40;86.10;;;;;;4950463;29;20258;-70
2022/05/21 13:43:21;;;;;;;1.73;0.80;;;25.30;85.40;;;;;;4953032;28;20270;-72
2022/05/21 13:45:56;;;;;;;1.73;0.90;;;25.60;87.80;;;;;;4953622;28;20226;-70
2022/05/21 13:48:29;;;;;;;1.33;1.05;;;25.60;86.90;;;;;;4953403;28;20277;-72
2022/05/21 13:50:57;;;;;;;2.10;0.95;;;25.50;87.20;;;;;;4953816;28;20580;-70
2022/05/21 13:53:27;;;;;;;2.60;1.10;;;25.70;84.80;;;;;;4952816;28;20235;-70